sensor_id;sensor_type;location;lat;lon;timestamp;P1;durP1;ratioP1;P2;durP2;ratioP2
61487;SDS011;47351;53.326;-6.298;2022-09-06T00:00:28;28.10;;;3.90;;
61487;SDS011;47351;53.326;-6.298;2022-09-06T00:03:18;29.60;;;3.90;;
61487;SDS011;47351;53.326;-6.298;2022-09-06T00:05:58;24.10;;;3.20;;
61487;SDS011;47351;53.326;-6.298;2022-09-06T00:12:59;26.90;;;4.00;;
61487;SDS011;47351;53.326;-6.298;2022-09-06T00:16:11;22.90;;;3.10;;
61487;SDS011;47351;53.326;-6.298;2022-09-06T00:19:09;27.40;;;3.20;;
61487;SDS011;47351;53.326;-6.298;2022-09-06T00:21:58;27.90;;;3.50;;
61487;SDS011;47351;53.326;-6.298;2022-09-06T00:25:08;20.00;;;3.90;;
61487;SDS011;47351;53.326;-6.298;2022-09-06T00:27:41;25.30;;;4.40;;
61487;SDS011;47351;53.326;-6.298;2022-09-06T00:30:34;28.10;;;4.10;;
61487;SDS011;47351;53.326;-6.298;2022-09-06T00:33:47;30.80;;;4.60;;
61487;SDS011;47351;53.326;-6.298;2022-09-06T00:36:54;27.70;;;4.00;;
61487;SDS011;47351;53.326;-6.298;2022-09-06T00:40:00;27.40;;;4.00;;
61487;SDS011;47351;53.326;-6.298;2022-09-06T00:43:19;31.90;;;4.30;;
61487;SDS011;47351;53.326;-6.298;2022-09-06T00:46:09;28.30;;;3.70;;
61487;SDS011;47351;53.326;-6.298;2022-09-06T00:49:06;24.50;;;4.20;;
61487;SDS011;47351;53.326;-6.298;2022-09-06T00:51:54;22.60;;;3.50;;
61487;SDS011;47351;53.326;-6.298;2022-09-06T00:55:06;20.50;;;3.40;;
61487;SDS011;47351;53.326;-6.298;2022-09-06T00:58:17;25.20;;;4.30;;
61487;SDS011;47351;53.326;-6.298;2022-09-06T01:05:08;28.80;;;4.10;;
61487;SDS011;47351;53.326;-6.298;2022-09-06T01:08:09;32.20;;;4.60;;
61487;SDS011;47351;53.326;-6.298;2022-09-06T01:11:21;24.90;;;4.00;;
61487;SDS011;47351;53.326;-6.298;2022-09-06T01:14:13;26.50;;;4.20;;
61487;SDS011;47351;53.326;-6.298;2022-09-06T01:17:05;38.30;;;4.80;;
61487;SDS011;47351;53.326;-6.298;2022-09-06T01:23:16;32.80;;;4.90;;
61487;SDS011;47351;53.326;-6.298;2022-09-06T01:26:58;29.80;;;4.20;;
61487;SDS011;47351;53.326;-6.298;2022-09-06T01:30:17;29.20;;;4.00;;
61487;SDS011;47351;53.326;-6.298;2022-09-06T01:33:31;35.90;;;4.90;;
61487;SDS011;47351;53.326;-6.298;2022-09-06T01:36:46;31.20;;;4.20;;
61487;SDS011;47351;53.326;-6.298;2022-09-06T01:39:59;28.70;;;4.40;;
61487;SDS011;47351;53.326;-6.298;2022-09-06T01:42:42;34.50;;;4.70;;
61487;SDS011;47351;53.326;-6.298;2022-09-06T01:45:50;34.50;;;4.90;;
61487;SDS011;47351;53.326;-6.298;2022-09-06T01:49:12;29.60;;;4.10;;
61487;SDS011;47351;53.326;-6.298;2022-09-06T01:56:06;24.80;;;4.50;;
61487;SDS011;47351;53.326;-6.298;2022-09-06T01:59:08;30.70;;;4.40;;
61487;SDS011;47351;53.326;-6.298;2022-09-06T02:11:30;29.10;;;4.40;;
61487;SDS011;47351;53.326;-6.298;2022-09-06T02:14:37;32.20;;;4.50;;
61487;SDS011;47351;53.326;-6.298;2022-09-06T02:17:24;29.20;;;4.10;;
61487;SDS011;47351;53.326;-6.298;2022-09-06T02:20:40;26.30;;;4.60;;
61487;SDS011;47351;53.326;-6.298;2022-09-06T02:23:35;25.10;;;4.60;;
61487;SDS011;47351;53.326;-6.298;2022-09-06T02:26:41;28.40;;;4.40;;
61487;SDS011;47351;53.326;-6.298;2022-09-06T02:29:19;30.30;;;4.60;;
61487;SDS011;47351;53.326;-6.298;2022-09-06T02:32:48;27.10;;;3.90;;
61487;SDS011;47351;53.326;-6.298;2022-09-06T02:35:44;29.50;;;3.70;;
61487;SDS011;47351;53.326;-6.298;2022-09-06T02:38:28;21.90;;;3.60;;
61487;SDS011;47351;53.326;-6.298;2022-09-06T02:41:08;26.90;;;4.30;;
61487;SDS011;47351;53.326;-6.298;2022-09-06T02:44:19;21.80;;;3.80;;
61487;SDS011;47351;53.326;-6.298;2022-09-06T02:47:29;22.20;;;3.30;;
61487;SDS011;47351;53.326;-6.298;2022-09-06T02:53:36;23.70;;;3.60;;
61487;SDS011;47351;53.326;-6.298;2022-09-06T02:59:51;24.00;;;3.30;;
61487;SDS011;47351;53.326;-6.298;2022-09-06T03:02:46;28.90;;;4.00;;
61487;SDS011;47351;53.326;-6.298;2022-09-06T03:05:36;22.60;;;3.40;;
61487;SDS011;47351;53.326;-6.298;2022-09-06T03:21:24;25.80;;;3.60;;
61487;SDS011;47351;53.326;-6.298;2022-09-06T03:24:23;25.10;;;3.90;;
61487;SDS011;47351;53.326;-6.298;2022-09-06T03:30:52;24.70;;;3.50;;
61487;SDS011;47351;53.326;-6.298;2022-09-06T03:34:02;25.10;;;3.60;;
61487;SDS011;47351;53.326;-6.298;2022-09-06T03:37:17;27.30;;;4.10;;
61487;SDS011;47351;53.326;-6.298;2022-09-06T03:43:25;30.30;;;4.20;;
61487;SDS011;47351;53.326;-6.298;2022-09-06T03:49:46;23.20;;;3.60;;
61487;SDS011;47351;53.326;-6.298;2022-09-06T03:52:35;21.40;;;3.80;;
61487;SDS011;47351;53.326;-6.298;2022-09-06T03:55:32;25.30;;;3.70;;
61487;SDS011;47351;53.326;-6.298;2022-09-06T04:01:22;22.80;;;3.50;;
61487;SDS011;47351;53.326;-6.298;2022-09-06T04:04:45;23.30;;;3.50;;
61487;SDS011;47351;53.326;-6.298;2022-09-06T04:12:05;29.30;;;3.80;;
61487;SDS011;47351;53.326;-6.298;2022-09-06T04:15:13;28.00;;;4.00;;
61487;SDS011;47351;53.326;-6.298;2022-09-06T04:27:15;22.50;;;3.50;;
61487;SDS011;47351;53.326;-6.298;2022-09-06T04:37:30;21.00;;;3.70;;
61487;SDS011;47351;53.326;-6.298;2022-09-06T04:40:28;20.80;;;3.20;;
61487;SDS011;47351;53.326;-6.298;2022-09-06T04:43:11;25.60;;;3.40;;
61487;SDS011;47351;53.326;-6.298;2022-09-06T04:46:20;19.50;;;3.10;;
61487;SDS011;47351;53.326;-6.298;2022-09-06T04:52:53;21.80;;;3.20;;
61487;SDS011;47351;53.326;-6.298;2022-09-06T04:56:05;21.70;;;3.90;;
61487;SDS011;47351;53.326;-6.298;2022-09-06T04:59:08;21.90;;;3.60;;
61487;SDS011;47351;53.326;-6.298;2022-09-06T05:02:05;21.20;;;3.30;;
61487;SDS011;47351;53.326;-6.298;2022-09-06T05:05:04;20.40;;;3.20;;
61487;SDS011;47351;53.326;-6.298;2022-09-06T05:07:54;28.40;;;3.50;;
61487;SDS011;47351;53.326;-6.298;2022-09-06T05:14:18;27.60;;;3.60;;
61487;SDS011;47351;53.326;-6.298;2022-09-06T05:17:26;23.40;;;4.30;;
61487;SDS011;47351;53.326;-6.298;2022-09-06T05:20:52;24.30;;;3.70;;
61487;SDS011;47351;53.326;-6.298;2022-09-06T05:24:02;29.60;;;4.30;;
61487;SDS011;47351;53.326;-6.298;2022-09-06T05:27:22;24.60;;;3.30;;
61487;SDS011;47351;53.326;-6.298;2022-09-06T05:30:31;23.90;;;3.80;;
61487;SDS011;47351;53.326;-6.298;2022-09-06T05:33:50;28.90;;;3.70;;
61487;SDS011;47351;53.326;-6.298;2022-09-06T05:36:26;20.00;;;3.10;;
61487;SDS011;47351;53.326;-6.298;2022-09-06T05:39:45;25.00;;;3.90;;
61487;SDS011;47351;53.326;-6.298;2022-09-06T05:42:48;22.60;;;3.80;;
61487;SDS011;47351;53.326;-6.298;2022-09-06T05:45:57;26.10;;;3.30;;
61487;SDS011;47351;53.326;-6.298;2022-09-06T05:48:54;19.50;;;3.40;;
61487;SDS011;47351;53.326;-6.298;2022-09-06T05:52:01;23.30;;;3.60;;
61487;SDS011;47351;53.326;-6.298;2022-09-06T05:54:55;18.60;;;3.40;;
61487;SDS011;47351;53.326;-6.298;2022-09-06T05:57:42;19.00;;;3.20;;
61487;SDS011;47351;53.326;-6.298;2022-09-06T06:00:43;24.80;;;3.90;;
61487;SDS011;47351;53.326;-6.298;2022-09-06T06:04:00;23.80;;;3.90;;
61487;SDS011;47351;53.326;-6.298;2022-09-06T06:06:57;27.50;;;4.10;;
61487;SDS011;47351;53.326;-6.298;2022-09-06T06:09:50;21.70;;;3.70;;
61487;SDS011;47351;53.326;-6.298;2022-09-06T06:12:36;23.60;;;3.70;;
61487;SDS011;47351;53.326;-6.298;2022-09-06T06:15:53;20.20;;;3.40;;
61487;SDS011;47351;53.326;-6.298;2022-09-06T06:18:50;19.20;;;3.50;;
61487;SDS011;47351;53.326;-6.298;2022-09-06T06:25:47;18.40;;;3.10;;
61487;SDS011;47351;53.326;-6.298;2022-09-06T06:28:39;19.80;;;3.10;;
61487;SDS011;47351;53.326;-6.298;2022-09-06T06:35:42;18.10;;;3.00;;
61487;SDS011;47351;53.326;-6.298;2022-09-06T06:38:33;19.20;;;3.00;;
61487;SDS011;47351;53.326;-6.298;2022-09-06T06:41:37;20.20;;;3.30;;
61487;SDS011;47351;53.326;-6.298;2022-09-06T06:44:45;20.00;;;2.80;;
61487;SDS011;47351;53.326;-6.298;2022-09-06T06:47:42;15.70;;;2.60;;
61487;SDS011;47351;53.326;-6.298;2022-09-06T06:50:37;20.60;;;2.90;;
61487;SDS011;47351;53.326;-6.298;2022-09-06T06:53:15;12.90;;;2.40;;
61487;SDS011;47351;53.326;-6.298;2022-09-06T06:56:13;17.20;;;2.80;;
61487;SDS011;47351;53.326;-6.298;2022-09-06T06:59:23;12.40;;;2.20;;
61487;SDS011;47351;53.326;-6.298;2022-09-06T07:02:31;11.10;;;2.30;;
61487;SDS011;47351;53.326;-6.298;2022-09-06T07:05:04;11.50;;;2.10;;
61487;SDS011;47351;53.326;-6.298;2022-09-06T07:08:11;11.50;;;2.10;;
61487;SDS011;47351;53.326;-6.298;2022-09-06T07:11:03;11.10;;;1.90;;
61487;SDS011;47351;53.326;-6.298;2022-09-06T07:13:36;13.60;;;2.70;;
61487;SDS011;47351;53.326;-6.298;2022-09-06T07:16:34;16.70;;;2.60;;
61487;SDS011;47351;53.326;-6.298;2022-09-06T07:19:06;11.00;;;2.20;;
61487;SDS011;47351;53.326;-6.298;2022-09-06T07:22:27;12.30;;;2.20;;
61487;SDS011;47351;53.326;-6.298;2022-09-06T07:25:25;14.00;;;2.40;;
61487;SDS011;47351;53.326;-6.298;2022-09-06T07:28:01;17.10;;;2.80;;
61487;SDS011;47351;53.326;-6.298;2022-09-06T07:30:53;16.00;;;2.70;;
61487;SDS011;47351;53.326;-6.298;2022-09-06T07:37:00;12.80;;;2.70;;
61487;SDS011;47351;53.326;-6.298;2022-09-06T07:39:47;12.90;;;2.50;;
61487;SDS011;47351;53.326;-6.298;2022-09-06T07:43:09;15.20;;;2.50;;
61487;SDS011;47351;53.326;-6.298;2022-09-06T07:45:38;13.30;;;2.80;;
61487;SDS011;47351;53.326;-6.298;2022-09-06T07:48:12;14.40;;;2.50;;
61487;SDS011;47351;53.326;-6.298;2022-09-06T07:50:44;12.90;;;2.30;;
61487;SDS011;47351;53.326;-6.298;2022-09-06T07:53:16;15.80;;;2.70;;
61487;SDS011;47351;53.326;-6.298;2022-09-06T07:56:06;15.40;;;2.90;;
61487;SDS011;47351;53.326;-6.298;2022-09-06T07:58:53;13.70;;;2.60;;
61487;SDS011;47351;53.326;-6.298;2022-09-06T08:01:30;13.70;;;3.00;;
61487;SDS011;47351;53.326;-6.298;2022-09-06T08:04:05;15.30;;;2.90;;
61487;SDS011;47351;53.326;-6.298;2022-09-06T08:06:38;17.80;;;3.30;;
61487;SDS011;47351;53.326;-6.298;2022-09-06T08:09:32;18.60;;;3.10;;
61487;SDS011;47351;53.326;-6.298;2022-09-06T08:12:04;21.20;;;3.20;;
61487;SDS011;47351;53.326;-6.298;2022-09-06T08:14:54;14.00;;;2.80;;
61487;SDS011;47351;53.326;-6.298;2022-09-06T08:17:23;22.20;;;3.80;;
61487;SDS011;47351;53.326;-6.298;2022-09-06T08:20:16;23.20;;;3.70;;
61487;SDS011;47351;53.326;-6.298;2022-09-06T08:23:08;17.90;;;3.20;;
61487;SDS011;47351;53.326;-6.298;2022-09-06T08:25:40;24.40;;;3.60;;
61487;SDS011;47351;53.326;-6.298;2022-09-06T08:28:52;26.90;;;4.00;;
61487;SDS011;47351;53.326;-6.298;2022-09-06T08:31:38;18.20;;;3.80;;
61487;SDS011;47351;53.326;-6.298;2022-09-06T08:34:18;30.00;;;4.30;;
61487;SDS011;47351;53.326;-6.298;2022-09-06T08:36:48;23.10;;;3.60;;
61487;SDS011;47351;53.326;-6.298;2022-09-06T08:39:23;19.20;;;3.30;;
61487;SDS011;47351;53.326;-6.298;2022-09-06T08:41:54;18.60;;;3.30;;
61487;SDS011;47351;53.326;-6.298;2022-09-06T08:44:30;21.30;;;3.70;;
61487;SDS011;47351;53.326;-6.298;2022-09-06T08:47:23;16.40;;;2.60;;
61487;SDS011;47351;53.326;-6.298;2022-09-06T08:49:54;18.30;;;2.90;;
61487;SDS011;47351;53.326;-6.298;2022-09-06T08:52:38;18.30;;;3.20;;
61487;SDS011;47351;53.326;-6.298;2022-09-06T08:55:37;13.70;;;2.90;;
61487;SDS011;47351;53.326;-6.298;2022-09-06T08:58:18;14.30;;;2.80;;
61487;SDS011;47351;53.326;-6.298;2022-09-06T09:01:03;15.40;;;2.80;;
61487;SDS011;47351;53.326;-6.298;2022-09-06T09:03:55;16.90;;;3.40;;
61487;SDS011;47351;53.326;-6.298;2022-09-06T09:06:30;17.90;;;3.70;;
61487;SDS011;47351;53.326;-6.298;2022-09-06T09:09:01;17.90;;;3.20;;
61487;SDS011;47351;53.326;-6.298;2022-09-06T09:11:32;22.30;;;3.50;;
61487;SDS011;47351;53.326;-6.298;2022-09-06T09:14:14;18.20;;;3.70;;
61487;SDS011;47351;53.326;-6.298;2022-09-06T09:16:54;21.40;;;3.30;;
61487;SDS011;47351;53.326;-6.298;2022-09-06T09:19:40;20.90;;;3.90;;
61487;SDS011;47351;53.326;-6.298;2022-09-06T09:22:13;23.10;;;3.60;;
61487;SDS011;47351;53.326;-6.298;2022-09-06T09:24:45;16.70;;;3.10;;
61487;SDS011;47351;53.326;-6.298;2022-09-06T09:27:19;18.90;;;3.30;;
61487;SDS011;47351;53.326;-6.298;2022-09-06T09:29:56;21.40;;;3.90;;
61487;SDS011;47351;53.326;-6.298;2022-09-06T09:32:47;20.70;;;3.50;;
61487;SDS011;47351;53.326;-6.298;2022-09-06T09:35:43;20.00;;;4.10;;
61487;SDS011;47351;53.326;-6.298;2022-09-06T09:38:19;26.60;;;5.20;;
61487;SDS011;47351;53.326;-6.298;2022-09-06T09:41:02;14.10;;;2.80;;
61487;SDS011;47351;53.326;-6.298;2022-09-06T09:43:53;8.80;;;1.70;;
61487;SDS011;47351;53.326;-6.298;2022-09-06T09:46:30;9.30;;;1.80;;
61487;SDS011;47351;53.326;-6.298;2022-09-06T09:49:06;8.60;;;1.60;;
61487;SDS011;47351;53.326;-6.298;2022-09-06T09:51:38;8.90;;;1.70;;
61487;SDS011;47351;53.326;-6.298;2022-09-06T09:54:09;7.40;;;1.60;;
61487;SDS011;47351;53.326;-6.298;2022-09-06T09:56:49;9.30;;;1.90;;
61487;SDS011;47351;53.326;-6.298;2022-09-06T10:01:48;12.30;;;2.40;;
61487;SDS011;47351;53.326;-6.298;2022-09-06T10:04:35;11.30;;;1.80;;
61487;SDS011;47351;53.326;-6.298;2022-09-06T10:07:12;9.40;;;1.80;;
61487;SDS011;47351;53.326;-6.298;2022-09-06T10:09:45;8.60;;;1.80;;
61487;SDS011;47351;53.326;-6.298;2022-09-06T10:12:26;8.50;;;1.90;;
61487;SDS011;47351;53.326;-6.298;2022-09-06T10:14:57;10.20;;;2.30;;
61487;SDS011;47351;53.326;-6.298;2022-09-06T10:18:01;10.40;;;2.10;;
61487;SDS011;47351;53.326;-6.298;2022-09-06T10:20:32;12.60;;;2.00;;
61487;SDS011;47351;53.326;-6.298;2022-09-06T10:23:31;10.10;;;2.00;;
61487;SDS011;47351;53.326;-6.298;2022-09-06T10:26:33;12.50;;;2.80;;
61487;SDS011;47351;53.326;-6.298;2022-09-06T10:29:21;15.30;;;2.70;;
61487;SDS011;47351;53.326;-6.298;2022-09-06T10:32:20;15.00;;;3.20;;
61487;SDS011;47351;53.326;-6.298;2022-09-06T10:35:19;16.50;;;2.50;;
61487;SDS011;47351;53.326;-6.298;2022-09-06T10:38:17;17.80;;;2.80;;
61487;SDS011;47351;53.326;-6.298;2022-09-06T10:41:08;19.90;;;3.30;;
61487;SDS011;47351;53.326;-6.298;2022-09-06T10:44:05;20.10;;;4.80;;
61487;SDS011;47351;53.326;-6.298;2022-09-06T10:47:00;19.30;;;3.80;;
61487;SDS011;47351;53.326;-6.298;2022-09-06T10:53:06;15.90;;;3.30;;
61487;SDS011;47351;53.326;-6.298;2022-09-06T10:55:48;22.30;;;3.90;;
61487;SDS011;47351;53.326;-6.298;2022-09-06T10:58:36;20.50;;;4.20;;
61487;SDS011;47351;53.326;-6.298;2022-09-06T11:01:43;25.30;;;4.50;;
61487;SDS011;47351;53.326;-6.298;2022-09-06T11:04:22;24.00;;;4.30;;
61487;SDS011;47351;53.326;-6.298;2022-09-06T11:07:32;23.80;;;3.90;;
61487;SDS011;47351;53.326;-6.298;2022-09-06T11:10:17;27.20;;;3.80;;
61487;SDS011;47351;53.326;-6.298;2022-09-06T11:12:53;27.20;;;4.30;;
61487;SDS011;47351;53.326;-6.298;2022-09-06T11:15:27;22.50;;;4.60;;
61487;SDS011;47351;53.326;-6.298;2022-09-06T11:18:42;21.00;;;3.60;;
61487;SDS011;47351;53.326;-6.298;2022-09-06T11:21:37;26.10;;;4.40;;
61487;SDS011;47351;53.326;-6.298;2022-09-06T11:24:41;26.30;;;4.30;;
61487;SDS011;47351;53.326;-6.298;2022-09-06T11:28:07;20.50;;;3.80;;
61487;SDS011;47351;53.326;-6.298;2022-09-06T11:34:52;21.60;;;3.50;;
61487;SDS011;47351;53.326;-6.298;2022-09-06T11:37:57;23.00;;;3.90;;
61487;SDS011;47351;53.326;-6.298;2022-09-06T11:41:11;24.20;;;3.80;;
61487;SDS011;47351;53.326;-6.298;2022-09-06T11:43:44;23.10;;;3.50;;
61487;SDS011;47351;53.326;-6.298;2022-09-06T11:56:50;19.80;;;3.70;;
61487;SDS011;47351;53.326;-6.298;2022-09-06T12:02:28;18.10;;;3.20;;
61487;SDS011;47351;53.326;-6.298;2022-09-06T12:05:25;18.20;;;3.90;;
61487;SDS011;47351;53.326;-6.298;2022-09-06T12:11:23;19.00;;;2.90;;
61487;SDS011;47351;53.326;-6.298;2022-09-06T12:14:37;19.30;;;3.40;;
61487;SDS011;47351;53.326;-6.298;2022-09-06T13:05:47;17.80;;;2.80;;
61487;SDS011;47351;53.326;-6.298;2022-09-06T13:09:33;21.70;;;3.10;;
61487;SDS011;47351;53.326;-6.298;2022-09-06T13:13:53;19.40;;;3.10;;
61487;SDS011;47351;53.326;-6.298;2022-09-06T13:26:50;24.90;;;3.90;;
61487;SDS011;47351;53.326;-6.298;2022-09-06T13:30:39;22.10;;;3.80;;
61487;SDS011;47351;53.326;-6.298;2022-09-06T13:34:24;19.20;;;3.70;;
61487;SDS011;47351;53.326;-6.298;2022-09-06T13:38:32;14.30;;;3.00;;
61487;SDS011;47351;53.326;-6.298;2022-09-06T13:42:32;11.00;;;1.90;;
61487;SDS011;47351;53.326;-6.298;2022-09-06T13:50:52;14.40;;;1.90;;
61487;SDS011;47351;53.326;-6.298;2022-09-06T13:59:52;15.20;;;2.70;;
61487;SDS011;47351;53.326;-6.298;2022-09-06T14:03:56;17.60;;;2.70;;
61487;SDS011;47351;53.326;-6.298;2022-09-06T14:07:44;14.00;;;3.00;;
61487;SDS011;47351;53.326;-6.298;2022-09-06T14:12:13;15.80;;;2.60;;
61487;SDS011;47351;53.326;-6.298;2022-09-06T14:16:19;14.90;;;2.80;;
61487;SDS011;47351;53.326;-6.298;2022-09-06T14:26:54;18.00;;;3.30;;
61487;SDS011;47351;53.326;-6.298;2022-09-06T14:32:02;19.10;;;3.50;;
61487;SDS011;47351;53.326;-6.298;2022-09-06T14:34:55;23.80;;;3.80;;
61487;SDS011;47351;53.326;-6.298;2022-09-06T14:37:27;20.40;;;3.20;;
61487;SDS011;47351;53.326;-6.298;2022-09-06T14:40:08;18.80;;;3.00;;
61487;SDS011;47351;53.326;-6.298;2022-09-06T14:43:13;19.20;;;2.80;;
61487;SDS011;47351;53.326;-6.298;2022-09-06T14:46:23;16.90;;;2.90;;
61487;SDS011;47351;53.326;-6.298;2022-09-06T14:48:57;20.30;;;3.10;;
61487;SDS011;47351;53.326;-6.298;2022-09-06T14:51:28;18.40;;;3.10;;
61487;SDS011;47351;53.326;-6.298;2022-09-06T14:53:58;17.00;;;2.70;;
61487;SDS011;47351;53.326;-6.298;2022-09-06T14:56:32;17.00;;;2.80;;
61487;SDS011;47351;53.326;-6.298;2022-09-06T14:59:33;17.50;;;2.90;;
61487;SDS011;47351;53.326;-6.298;2022-09-06T15:02:06;16.40;;;3.10;;
61487;SDS011;47351;53.326;-6.298;2022-09-06T15:04:35;17.50;;;2.80;;
61487;SDS011;47351;53.326;-6.298;2022-09-06T15:07:54;17.70;;;2.90;;
61487;SDS011;47351;53.326;-6.298;2022-09-06T15:11:29;18.50;;;3.00;;
61487;SDS011;47351;53.326;-6.298;2022-09-06T15:14:28;18.50;;;3.20;;
61487;SDS011;47351;53.326;-6.298;2022-09-06T15:17:08;15.50;;;2.60;;
61487;SDS011;47351;53.326;-6.298;2022-09-06T15:19:38;17.70;;;2.70;;
61487;SDS011;47351;53.326;-6.298;2022-09-06T15:26:05;19.90;;;3.10;;
61487;SDS011;47351;53.326;-6.298;2022-09-06T15:28:41;16.00;;;2.70;;
61487;SDS011;47351;53.326;-6.298;2022-09-06T15:31:11;12.90;;;2.60;;
61487;SDS011;47351;53.326;-6.298;2022-09-06T15:33:56;13.00;;;2.00;;
61487;SDS011;47351;53.326;-6.298;2022-09-06T15:36:31;9.50;;;1.90;;
61487;SDS011;47351;53.326;-6.298;2022-09-06T15:39:32;8.90;;;1.50;;
61487;SDS011;47351;53.326;-6.298;2022-09-06T15:42:10;10.00;;;1.80;;
61487;SDS011;47351;53.326;-6.298;2022-09-06T15:45:02;8.80;;;1.60;;
61487;SDS011;47351;53.326;-6.298;2022-09-06T15:47:34;10.90;;;2.10;;
61487;SDS011;47351;53.326;-6.298;2022-09-06T15:50:07;9.90;;;2.30;;
61487;SDS011;47351;53.326;-6.298;2022-09-06T15:53:15;10.60;;;2.10;;
61487;SDS011;47351;53.326;-6.298;2022-09-06T15:55:59;8.90;;;1.80;;
61487;SDS011;47351;53.326;-6.298;2022-09-06T15:58:32;14.10;;;5.70;;
61487;SDS011;47351;53.326;-6.298;2022-09-06T16:01:09;5.60;;;1.50;;
61487;SDS011;47351;53.326;-6.298;2022-09-06T16:03:43;5.10;;;1.40;;
61487;SDS011;47351;53.326;-6.298;2022-09-06T16:06:23;4.50;;;1.10;;
61487;SDS011;47351;53.326;-6.298;2022-09-06T16:08:55;4.10;;;1.20;;
61487;SDS011;47351;53.326;-6.298;2022-09-06T16:11:29;5.10;;;1.30;;
61487;SDS011;47351;53.326;-6.298;2022-09-06T16:14:02;5.90;;;1.20;;
61487;SDS011;47351;53.326;-6.298;2022-09-06T16:16:44;6.40;;;1.30;;
61487;SDS011;47351;53.326;-6.298;2022-09-06T16:19:16;6.10;;;1.20;;
61487;SDS011;47351;53.326;-6.298;2022-09-06T16:21:45;8.80;;;2.10;;
61487;SDS011;47351;53.326;-6.298;2022-09-06T16:24:15;7.80;;;1.60;;
61487;SDS011;47351;53.326;-6.298;2022-09-06T16:26:48;9.70;;;1.60;;
61487;SDS011;47351;53.326;-6.298;2022-09-06T16:29:38;10.40;;;1.70;;
61487;SDS011;47351;53.326;-6.298;2022-09-06T16:32:07;5.30;;;1.20;;
61487;SDS011;47351;53.326;-6.298;2022-09-06T16:34:36;5.70;;;1.00;;
61487;SDS011;47351;53.326;-6.298;2022-09-06T16:37:06;9.80;;;1.40;;
61487;SDS011;47351;53.326;-6.298;2022-09-06T16:39:44;7.00;;;1.20;;
61487;SDS011;47351;53.326;-6.298;2022-09-06T16:42:22;6.40;;;1.10;;
61487;SDS011;47351;53.326;-6.298;2022-09-06T16:45:30;6.20;;;1.20;;
61487;SDS011;47351;53.326;-6.298;2022-09-06T16:48:05;7.50;;;1.00;;
61487;SDS011;47351;53.326;-6.298;2022-09-06T16:50:37;7.60;;;1.60;;
61487;SDS011;47351;53.326;-6.298;2022-09-06T16:53:09;8.50;;;1.70;;
61487;SDS011;47351;53.326;-6.298;2022-09-06T16:55:43;8.80;;;1.70;;
61487;SDS011;47351;53.326;-6.298;2022-09-06T16:58:12;12.20;;;1.70;;
61487;SDS011;47351;53.326;-6.298;2022-09-06T17:00:41;10.80;;;1.60;;
61487;SDS011;47351;53.326;-6.298;2022-09-06T17:03:34;9.70;;;1.70;;
61487;SDS011;47351;53.326;-6.298;2022-09-06T17:06:44;7.70;;;1.80;;
61487;SDS011;47351;53.326;-6.298;2022-09-06T17:09:16;6.60;;;1.40;;
61487;SDS011;47351;53.326;-6.298;2022-09-06T17:12:27;8.40;;;1.50;;
61487;SDS011;47351;53.326;-6.298;2022-09-06T17:15:37;9.60;;;1.50;;
61487;SDS011;47351;53.326;-6.298;2022-09-06T17:18:44;9.10;;;1.60;;
61487;SDS011;47351;53.326;-6.298;2022-09-06T17:21:53;9.60;;;1.80;;
61487;SDS011;47351;53.326;-6.298;2022-09-06T17:25:01;7.30;;;1.20;;
61487;SDS011;47351;53.326;-6.298;2022-09-06T17:27:36;6.90;;;1.60;;
61487;SDS011;47351;53.326;-6.298;2022-09-06T17:30:45;8.50;;;1.70;;
61487;SDS011;47351;53.326;-6.298;2022-09-06T17:33:37;9.90;;;1.90;;
61487;SDS011;47351;53.326;-6.298;2022-09-06T17:39:34;13.70;;;2.60;;
61487;SDS011;47351;53.326;-6.298;2022-09-06T17:42:44;7.40;;;1.80;;
61487;SDS011;47351;53.326;-6.298;2022-09-06T17:45:34;11.00;;;1.80;;
61487;SDS011;47351;53.326;-6.298;2022-09-06T17:48:16;12.90;;;1.80;;
61487;SDS011;47351;53.326;-6.298;2022-09-06T17:51:25;9.50;;;1.70;;
61487;SDS011;47351;53.326;-6.298;2022-09-06T17:54:34;12.60;;;2.20;;
61487;SDS011;47351;53.326;-6.298;2022-09-06T17:57:21;9.50;;;1.50;;
61487;SDS011;47351;53.326;-6.298;2022-09-06T18:00:17;11.00;;;1.80;;
61487;SDS011;47351;53.326;-6.298;2022-09-06T18:03:06;11.70;;;2.10;;
61487;SDS011;47351;53.326;-6.298;2022-09-06T18:05:36;7.50;;;1.70;;
61487;SDS011;47351;53.326;-6.298;2022-09-06T18:08:06;9.90;;;1.90;;
61487;SDS011;47351;53.326;-6.298;2022-09-06T18:11:16;7.70;;;1.60;;
61487;SDS011;47351;53.326;-6.298;2022-09-06T18:14:21;9.80;;;1.30;;
61487;SDS011;47351;53.326;-6.298;2022-09-06T18:17:30;8.80;;;1.30;;
61487;SDS011;47351;53.326;-6.298;2022-09-06T18:20:40;8.90;;;1.30;;
61487;SDS011;47351;53.326;-6.298;2022-09-06T18:23:51;10.00;;;1.80;;
61487;SDS011;47351;53.326;-6.298;2022-09-06T18:27:02;11.30;;;2.30;;
61487;SDS011;47351;53.326;-6.298;2022-09-06T18:30:11;8.60;;;1.90;;
61487;SDS011;47351;53.326;-6.298;2022-09-06T18:33:04;13.50;;;1.90;;
61487;SDS011;47351;53.326;-6.298;2022-09-06T18:36:18;14.30;;;1.90;;
61487;SDS011;47351;53.326;-6.298;2022-09-06T18:39:27;9.20;;;1.80;;
61487;SDS011;47351;53.326;-6.298;2022-09-06T18:42:36;12.40;;;2.00;;
61487;SDS011;47351;53.326;-6.298;2022-09-06T18:45:32;11.40;;;2.00;;
61487;SDS011;47351;53.326;-6.298;2022-09-06T19:02:01;14.00;;;2.80;;
61487;SDS011;47351;53.326;-6.298;2022-09-06T19:05:09;9.00;;;2.20;;
61487;SDS011;47351;53.326;-6.298;2022-09-06T19:23:54;11.90;;;2.40;;
61487;SDS011;47351;53.326;-6.298;2022-09-06T19:26:58;12.90;;;3.50;;
61487;SDS011;47351;53.326;-6.298;2022-09-06T19:33:15;12.40;;;2.60;;
61487;SDS011;47351;53.326;-6.298;2022-09-06T19:40:46;16.30;;;2.80;;
61487;SDS011;47351;53.326;-6.298;2022-09-06T19:43:38;12.50;;;2.70;;
61487;SDS011;47351;53.326;-6.298;2022-09-06T19:54:25;13.10;;;2.10;;
61487;SDS011;47351;53.326;-6.298;2022-09-06T19:57:38;9.50;;;2.20;;
61487;SDS011;47351;53.326;-6.298;2022-09-06T20:00:47;10.90;;;2.50;;
61487;SDS011;47351;53.326;-6.298;2022-09-06T20:03:59;10.90;;;2.10;;
61487;SDS011;47351;53.326;-6.298;2022-09-06T20:07:03;10.20;;;2.90;;
61487;SDS011;47351;53.326;-6.298;2022-09-06T20:10:13;9.70;;;2.30;;
61487;SDS011;47351;53.326;-6.298;2022-09-06T20:13:07;12.00;;;3.30;;
61487;SDS011;47351;53.326;-6.298;2022-09-06T20:16:18;13.40;;;2.80;;
61487;SDS011;47351;53.326;-6.298;2022-09-06T20:22:35;11.90;;;2.40;;
61487;SDS011;47351;53.326;-6.298;2022-09-06T20:25:44;12.00;;;2.30;;
61487;SDS011;47351;53.326;-6.298;2022-09-06T20:28:54;12.30;;;2.20;;
61487;SDS011;47351;53.326;-6.298;2022-09-06T20:36:26;14.00;;;2.90;;
61487;SDS011;47351;53.326;-6.298;2022-09-06T20:39:36;13.10;;;3.00;;
61487;SDS011;47351;53.326;-6.298;2022-09-06T20:42:46;18.20;;;3.10;;
61487;SDS011;47351;53.326;-6.298;2022-09-06T20:46:14;20.90;;;3.20;;
61487;SDS011;47351;53.326;-6.298;2022-09-06T20:49:09;10.30;;;2.70;;
61487;SDS011;47351;53.326;-6.298;2022-09-06T20:52:21;11.70;;;3.00;;
61487;SDS011;47351;53.326;-6.298;2022-09-06T20:55:31;12.00;;;2.50;;
61487;SDS011;47351;53.326;-6.298;2022-09-06T21:01:54;11.00;;;2.50;;
61487;SDS011;47351;53.326;-6.298;2022-09-06T21:05:04;11.00;;;2.70;;
61487;SDS011;47351;53.326;-6.298;2022-09-06T21:08:21;12.60;;;2.70;;
61487;SDS011;47351;53.326;-6.298;2022-09-06T21:11:33;14.50;;;2.90;;
61487;SDS011;47351;53.326;-6.298;2022-09-06T21:14:44;11.50;;;2.60;;
61487;SDS011;47351;53.326;-6.298;2022-09-06T21:18:11;15.10;;;3.20;;
61487;SDS011;47351;53.326;-6.298;2022-09-06T21:25:43;13.90;;;3.00;;
61487;SDS011;47351;53.326;-6.298;2022-09-06T21:29:00;13.10;;;2.80;;
61487;SDS011;47351;53.326;-6.298;2022-09-06T21:52:53;14.70;;;4.00;;
61487;SDS011;47351;53.326;-6.298;2022-09-06T22:04:33;19.80;;;3.50;;
61487;SDS011;47351;53.326;-6.298;2022-09-06T22:12:02;13.60;;;3.00;;